Flight Track Log - Related Links

Times and Time Zones

All times are in EDT time to prevent confusion due to time zone crossing. See the RPA3228 flight status page for this flight to view local times or setup timezone preferences in your user account.

Time Position Orientation Groundspeed Altitude Reporting Facility
EDT Latitude Longitude Course Direction KTS MPH feet Rate Location/Type
Mon 09:20:17 AM 36.1000 -86.6833 141° Southeast 156 180 1,700  Level Nashville TRACON
Mon 09:20:53 AM 36.0833 -86.6667 141° Southeast 181 208 2,700 1,933 Climbing Nashville TRACON
Mon 09:21:47 AM 36.0500 -86.6167 129° Southeast 246 283 4,600 2,650 Climbing Nashville TRACON
Mon 09:22:53 AM 36.0833 -86.5167 68° East 275 316 8,000 2,976 Climbing Nashville TRACON
Mon 09:23:50 AM 36.1047 -86.4292 73° East 315 362 10,700 2,513 Climbing Memphis Center
Mon 09:24:50 AM 36.1306 -86.3303 72° East 308 354 12,900 2,300 Climbing Memphis Center
Mon 09:25:50 AM 36.1586 -86.2311 71° East 303 349 15,300 2,200 Climbing Memphis Center
Mon 09:26:50 AM 36.1864 -86.1242 72° East 315 362 17,300 1,800 Climbing Memphis Center
Mon 09:27:50 AM 36.2244 -86.0167 66° East 322 371 18,900 1,850 Climbing Memphis Center
Mon 09:28:50 AM 36.2728 -85.9086 61° Northeast 342 394 21,000 1,772 Climbing Memphis Center
Mon 09:30:19 AM 36.3386 -85.7614 61° Northeast 358 412 23,300 1,550 Climbing Indianapolis Center
Mon 09:31:21 AM 36.3900 -85.6547 59° Northeast 360 414 24,900 1,500 Climbing Indianapolis Center
Mon 09:32:23 AM 36.4425 -85.5456 59° Northeast 366 421 26,400 1,016 Climbing Indianapolis Center
Mon 09:33:25 AM 36.4944 -85.4342 60° Northeast 370 426 27,000 290 Climbing Indianapolis Center
Mon 09:34:27 AM 36.5583 -85.2997 59° Northeast 374 430 27,000  Level Indianapolis Center
Mon 09:35:29 AM 36.5878 -85.1775 73° East 385 443 27,000  Level Indianapolis Center
Mon 09:36:31 AM 36.5794 -85.0431 94° East 387 445 27,000 532 Level Indianapolis Center
Mon 09:37:33 AM 36.5706 -84.9086 95° East 387 445 28,100 1,500 Climbing Indianapolis Center
Mon 09:38:35 AM 36.5653 -84.7731 93° East 388 447 30,100 1,887 Climbing Indianapolis Center
Mon 09:39:37 AM 36.5658 -84.6433 90° East 378 435 32,000 1,403 Climbing Indianapolis Center
Mon 09:40:39 AM 36.5875 -84.5186 78° East 373 429 33,000 532 Climbing Indianapolis Center
Mon 09:41:41 AM 36.6386 -84.3839 65° Northeast 362 417 33,100 823 Climbing Indianapolis Center
Mon 09:42:43 AM 36.6808 -84.2708 65° Northeast 358 412 34,700 919 Climbing Indianapolis Center
Mon 09:43:45 AM 36.7214 -84.1594 66° East 353 406 35,000 145 Climbing Indianapolis Center
Mon 09:44:47 AM 36.7625 -84.0483 65° Northeast 352 405 35,000  Level Indianapolis Center
Mon 09:45:49 AM 36.8019 -83.9375 66° East 351 404 35,000  Level Indianapolis Center
Mon 09:46:51 AM 36.8433 -83.8289 65° Northeast 349 402 35,000  Level Indianapolis Center
Mon 09:47:53 AM 36.8908 -83.6997 65° Northeast 347 399 35,000  Level Indianapolis Center
Mon 09:48:55 AM 36.9308 -83.5878 66° East 350 403 35,000  Level Indianapolis Center
Mon 09:49:57 AM 36.9700 -83.4786 66° East 345 397 35,000  Level Indianapolis Center
Mon 09:50:59 AM 37.0092 -83.3689 66° East 344 396 35,000  Level Indianapolis Center
Mon 09:52:01 AM 37.0489 -83.2589 66° East 343 395 35,000  Level Indianapolis Center
Mon 09:53:03 AM 37.0881 -83.1497 66° East 341 392 35,000  Level Indianapolis Center
Mon 09:54:06 AM 37.1275 -83.0397 66° East 340 391 35,000  Level Indianapolis Center
Mon 09:55:08 AM 37.1725 -82.9097 66° East 342 394 35,000  Level Indianapolis Center
Mon 09:56:10 AM 37.2108 -82.7989 66° East 342 394 35,000  Level Indianapolis Center
Mon 09:57:12 AM 37.2653 -82.7050 54° Northeast 331 381 35,000  Level Indianapolis Center
Mon 09:58:14 AM 37.3250 -82.6158 50° Northeast 330 380 35,000  Level Indianapolis Center
Mon 09:59:16 AM 37.3833 -82.5253 51° Northeast 333 383 35,000  Level Indianapolis Center
Mon 10:00:18 AM 37.4417 -82.4350 51° Northeast 332 382 35,000  Level Indianapolis Center
Mon 10:01:20 AM 37.5097 -82.3283 51° Northeast 334 384 35,000  Level Indianapolis Center
Mon 10:02:22 AM 37.5672 -82.2347 52° Northeast 337 388 35,000  Level Indianapolis Center
Mon 10:03:24 AM 37.6172 -82.1347 58° Northeast 335 386 35,000  Level Indianapolis Center
Mon 10:04:26 AM 37.6481 -82.0169 72° East 349 402 35,000  Level Indianapolis Center
Mon 10:05:28 AM 37.6819 -81.9008 70° East 351 404 35,000  Level Indianapolis Center
Mon 10:06:30 AM 37.7189 -81.7686 71° East 343 395 35,000  Level Indianapolis Center
Mon 10:07:32 AM 37.7517 -81.6553 70° East 343 395 35,000  Level Indianapolis Center
Mon 10:08:34 AM 37.7828 -81.5408 71° East 343 395 35,000  Level Indianapolis Center
Mon 10:09:36 AM 37.8131 -81.4367 70° East 344 396 35,000  Level Indianapolis Center
Mon 10:10:38 AM 37.8500 -81.3036 71° East 352 405 35,000  Level Indianapolis Center
Mon 10:11:40 AM 37.8814 -81.1886 71° East 348 400 35,000  Level Indianapolis Center
Mon 10:12:42 AM 37.9144 -81.0733 70° East 349 402 35,000  Level Indianapolis Center
Mon 10:13:44 AM 37.9489 -80.9586 69° East 350 403 35,000  Level Indianapolis Center
Mon 10:14:46 AM 37.9811 -80.8458 70° East 345 397 35,000  Level Indianapolis Center
Mon 10:15:48 AM 38.0217 -80.7067 70° East 349 402 35,000  Level Indianapolis Center
Mon 10:16:50 AM 38.0556 -80.5897 70° East 353 406 35,000  Level Indianapolis Center
Mon 10:17:52 AM 38.0900 -80.4706 70° East 359 413 35,000 -339 Level Indianapolis Center
Mon 10:18:54 AM 38.1250 -80.3519 69° East 360 414 34,300 -677 Descending Indianapolis Center
Mon 10:19:56 AM 38.1583 -80.2342 70° East 357 411 33,600 -687 Descending Indianapolis Center
Mon 10:21:05 AM 38.1992 -80.0969 69° East 358 412 32,800 -692 Descending Washington Center
Mon 10:22:06 AM 38.2353 -79.9694 70° East 363 418 32,100 -756 Descending Washington Center
Mon 10:23:04 AM 38.2753 -79.8394 69° East 376 433 31,300 -1,017 Descending Washington Center
Mon 10:24:04 AM 38.3158 -79.6911 71° East 396 456 30,100 -1,140 Descending Washington Center
Mon 10:25:05 AM 38.3561 -79.5528 70° East 401 461 29,000 -1,091 Descending Washington Center
Mon 10:26:05 AM 38.3939 -79.4144 71° East 406 467 27,900 -992 Descending Washington Center
Mon 10:27:06 AM 38.4297 -79.2731 72° East 406 467 27,000 -793 Descending Washington Center
Mon 10:28:06 AM 38.4547 -79.1339 77° East 406 467 26,300 -1,068 Descending Washington Center
Mon 10:29:04 AM 38.4772 -79.0050 77° East 412 474 24,900 -1,475 Descending Washington Center
Mon 10:30:04 AM 38.5000 -78.8575 79° East 412 474 23,400 -1,488 Descending Washington Center
Mon 10:31:05 AM 38.5250 -78.7072 78° East 418 481 21,900 -1,475 Descending Washington Center
Mon 10:32:06 AM 38.5453 -78.5622 80° East 423 487 20,400 -1,525 Descending Washington Center
Mon 10:33:03 AM 38.5675 -78.4169 79° East 423 487 18,900 -1,462 Descending Washington Center
Mon 10:34:05 AM 38.5917 -78.2772 77° East 413 475 17,500 -1,377 Descending Washington Center
Mon 10:35:05 AM 38.6319 -78.1431 69° East 403 464 16,100 -1,388 Descending Washington Center
Mon 10:36:06 AM 38.6722 -78.0142 68° East 393 452 14,700 -1,361 Descending Washington Center
Mon 10:37:04 AM 38.7122 -77.8931 67° East 381 438 13,400 -1,210 Descending Washington Center
Mon 10:38:05 AM 38.7556 -77.7958 60° Northeast 348 400 12,300 -1,131 Descending Washington Center
Mon 10:39:06 AM 38.8156 -77.7069 49° Northeast 330 380 11,100 -1,462 Descending Washington Center
Mon 10:40:04 AM 38.8817 -77.6156 47° Northeast 313 360 9,400 -1,463 Descending Washington Center
Mon 10:41:09 AM 38.9333 -77.5333 51° Northeast 287 330 8,100 -720 Descending Potomac TRACON
Mon 10:42:09 AM 38.9667 -77.4500 63° Northeast 247 284 7,900 -750 Descending Potomac TRACON
Mon 10:43:09 AM 38.9833 -77.3667 76° East 225 259 6,600 -1,304 Descending Potomac TRACON
Mon 10:44:04 AM 39.0167 -77.3000 57° Northeast 221 254 5,400 -1,617 Descending Potomac TRACON
Mon 10:45:04 AM 39.0000 -77.2333 108° East 213 245 3,500 -1,350 Descending Potomac TRACON
Mon 10:46:04 AM 38.9667 -77.1667 123° Southeast 211 243 2,700 -850 Descending Potomac TRACON
Mon 10:47:04 AM 38.9333 -77.1167 131° Southeast 195 224 1,800 -893 Descending Potomac TRACON
Mon 10:48:05 AM 38.9000 -77.0667 131° Southeast 168 193 900 -744 Descending Potomac TRACON
Mon 10:49:05 AM 38.8667 -77.0333 142° Southeast 134 154 300 -600 Descending Potomac TRACON
Mon 10:51:00 AM 38.8519 -77.0377 180° South  Level Estimated

Login

Don't have an account? Register now (free) for customized features, flight alerts, and more!